Time;durP1;ratioP1;P1;durP2;ratioP2;P2;SDS_P1;SDS_P2;PMS_P1;PMS_P2;Temp;Humidity;BMP_temperature;BMP_pressure;BME280_temperature;BME280_humidity;BME280_pressure;Samples;Min_cycle;Max_cycle;Signal;HPM_P1;HPM_P2
2024/02/02 00:01:18;;;;;;;36.03;10.93;;;;;;;;;;4985444;28;20547;-59
2024/02/02 00:03:44;;;;;;;36.85;9.85;;;;;;;;;;4990483;28;20455;-59
2024/02/02 00:06:10;;;;;;;29.13;10.05;;;;;;;;;;4989838;28;20488;-56
2024/02/02 00:08:36;;;;;;;33.40;8.85;;;;;;;;;;4987749;28;20088;-58
2024/02/02 00:11:02;;;;;;;40.72;14.38;;;;;;;;;;4987744;28;20053;-56
2024/02/02 00:13:28;;;;;;;34.22;10.75;;;;;;;;;;4988533;28;20041;-58
2024/02/02 00:15:54;;;;;;;28.70;9.45;;;;;;;;;;4986265;28;20030;-58
2024/02/02 00:18:20;;;;;;;28.08;7.75;;;;;;;;;;4989527;28;20026;-59
2024/02/02 00:20:46;;;;;;;39.92;9.75;;;;;;;;;;4986610;28;20385;-58
2024/02/02 00:23:12;;;;;;;36.78;7.80;;;;;;;;;;4990326;28;20033;-58
2024/02/02 00:25:38;;;;;;;30.02;7.40;;;;;;;;;;4987430;28;20030;-58
2024/02/02 00:28:04;;;;;;;34.05;7.82;;;;;;;;;;4988428;28;20109;-59
2024/02/02 00:30:35;;;;;;;36.75;7.43;;;;;;;;;;4983999;28;20061;-57
2024/02/02 00:33:02;;;;;;;37.30;7.95;;;;;;;;;;4989421;28;20022;-58
2024/02/02 00:35:28;;;;;;;34.38;7.57;;;;;;;;;;4986918;28;20053;-58
2024/02/02 00:37:54;;;;;;;28.23;6.90;;;;;;;;;;4989438;28;20129;-59
2024/02/02 00:40:20;;;;;;;33.03;6.57;;;;;;;;;;4987854;28;20031;-59
2024/02/02 00:42:46;;;;;;;20.02;6.30;;;;;;;;;;4986875;28;20045;-58
2024/02/02 00:45:12;;;;;;;27.77;6.80;;;;;;;;;;4989242;28;20045;-57
2024/02/02 00:47:38;;;;;;;30.00;6.35;;;;;;;;;;4988632;28;20036;-57
2024/02/02 00:50:05;;;;;;;21.83;5.85;;;;;;;;;;4988937;28;20026;-58
2024/02/02 00:52:32;;;;;;;22.75;5.82;;;;;;;;;;4988290;28;20416;-59
2024/02/02 00:54:58;;;;;;;33.53;6.30;;;;;;;;;;4987035;28;20077;-59
2024/02/02 00:57:24;;;;;;;21.75;5.32;;;;;;;;;;4988779;28;20085;-58
2024/02/02 00:59:50;;;;;;;20.33;5.20;;;;;;;;;;4986674;28;20424;-59
2024/02/02 01:02:17;;;;;;;20.55;5.80;;;;;;;;;;4984515;28;20045;-59
2024/02/02 01:04:43;;;;;;;21.08;5.80;;;;;;;;;;4988168;28;20030;-58
2024/02/02 01:07:09;;;;;;;17.98;6.97;;;;;;;;;;4989178;28;20108;-58
2024/02/02 01:09:35;;;;;;;23.85;6.35;;;;;;;;;;4989011;28;20041;-58
2024/02/02 01:12:01;;;;;;;25.15;8.70;;;;;;;;;;4988370;28;20145;-59
2024/02/02 01:14:27;;;;;;;23.38;6.60;;;;;;;;;;4988794;28;20067;-59
2024/02/02 01:16:53;;;;;;;24.30;7.05;;;;;;;;;;4985065;28;20062;-58
2024/02/02 01:19:20;;;;;;;28.35;7.57;;;;;;;;;;4986873;28;20556;-59
2024/02/02 01:21:46;;;;;;;28.90;6.53;;;;;;;;;;4985534;28;20048;-59
2024/02/02 01:24:12;;;;;;;30.38;8.07;;;;;;;;;;4988481;28;20045;-59
2024/02/02 01:26:38;;;;;;;30.75;6.88;;;;;;;;;;4989197;28;20030;-55
2024/02/02 01:29:04;;;;;;;26.88;9.13;;;;;;;;;;4984357;28;20476;-57
2024/02/02 01:31:30;;;;;;;29.80;7.80;;;;;;;;;;4988104;28;20391;-59
2024/02/02 01:33:56;;;;;;;24.58;7.32;;;;;;;;;;4987192;28;20372;-59
2024/02/02 01:36:22;;;;;;;27.65;7.15;;;;;;;;;;4988379;28;20748;-59
2024/02/02 01:38:50;;;;;;;37.92;7.68;;;;;;;;;;4987938;28;20018;-58
2024/02/02 01:41:17;;;;;;;20.52;7.45;;;;;;;;;;4984179;28;20076;-60
2024/02/02 01:43:43;;;;;;;28.67;7.38;;;;;;;;;;4986969;28;20077;-60
2024/02/02 01:46:09;;;;;;;21.90;7.20;;;;;;;;;;4987739;28;20522;-59
2024/02/02 01:48:35;;;;;;;23.33;8.02;;;;;;;;;;4987254;28;20102;-59
2024/02/02 01:51:01;;;;;;;35.28;8.35;;;;;;;;;;4982355;28;20540;-58
2024/02/02 01:53:27;;;;;;;25.55;7.38;;;;;;;;;;4987199;28;20106;-55
2024/02/02 01:55:53;;;;;;;27.35;7.80;;;;;;;;;;4984616;28;20033;-58
2024/02/02 01:58:19;;;;;;;23.95;7.07;;;;;;;;;;4986696;28;20031;-58
2024/02/02 02:00:45;;;;;;;28.38;7.32;;;;;;;;;;4986061;28;20061;-58
2024/02/02 02:03:11;;;;;;;18.55;6.88;;;;;;;;;;4987539;28;20030;-57
2024/02/02 02:05:38;;;;;;;19.10;6.70;;;;;;;;;;4987391;28;20476;-57
2024/02/02 02:08:05;;;;;;;26.60;8.45;;;;;;;;;;4991128;28;20135;-59
2024/02/02 02:10:31;;;;;;;24.75;8.07;;;;;;;;;;4989924;28;20026;-55
2024/02/02 02:12:57;;;;;;;28.13;7.93;;;;;;;;;;4985289;28;20041;-59
2024/02/02 02:15:24;;;;;;;39.15;7.95;;;;;;;;;;4989601;28;20026;-57
2024/02/02 02:17:51;;;;;;;30.55;8.40;;;;;;;;;;4992548;28;20076;-58
2024/02/02 02:20:20;;;;;;;20.85;7.60;;;;;;;;;;4990665;28;20117;-59
2024/02/02 02:22:46;;;;;;;16.23;7.30;;;;;;;;;;4991106;28;20499;-58
2024/02/02 02:25:12;;;;;;;21.10;8.05;;;;;;;;;;4990034;28;20049;-56
2024/02/02 02:27:38;;;;;;;30.02;7.25;;;;;;;;;;4989470;28;20045;-57
2024/02/02 02:30:05;;;;;;;20.05;6.53;;;;;;;;;;4986251;28;20064;-58
2024/02/02 02:32:31;;;;;;;16.90;6.97;;;;;;;;;;4991921;28;20030;-59
2024/02/02 02:34:57;;;;;;;18.42;6.75;;;;;;;;;;4991366;28;20488;-57
2024/02/02 02:37:23;;;;;;;31.98;6.75;;;;;;;;;;4990279;28;20022;-58
2024/02/02 02:39:49;;;;;;;27.52;8.05;;;;;;;;;;4990966;28;20396;-58
2024/02/02 02:42:15;;;;;;;18.02;7.25;;;;;;;;;;4991988;28;20026;-57
2024/02/02 02:44:41;;;;;;;18.67;6.45;;;;;;;;;;4985546;28;20038;-58
2024/02/02 02:47:07;;;;;;;17.95;6.72;;;;;;;;;;4982959;28;20038;-55
2024/02/02 02:52:36;;;;;;;25.30;6.82;;;;;;;;;;4979389;28;20136;-57
2024/02/02 02:55:02;;;;;;;20.10;6.90;;;;;;;;;;4981590;28;20058;-57
2024/02/02 02:57:28;;;;;;;26.23;6.32;;;;;;;;;;4982915;28;20034;-58
2024/02/02 02:59:54;;;;;;;24.95;7.85;;;;;;;;;;4980204;28;20035;-59
2024/02/02 03:02:20;;;;;;;23.55;6.70;;;;;;;;;;4982146;28;20045;-58
2024/02/02 03:04:46;;;;;;;25.85;6.63;;;;;;;;;;4982759;28;20034;-58
2024/02/02 03:07:12;;;;;;;28.25;7.20;;;;;;;;;;4990757;28;20420;-58
2024/02/02 03:09:38;;;;;;;21.80;7.65;;;;;;;;;;4990250;28;20568;-58
2024/02/02 03:12:04;;;;;;;28.75;7.75;;;;;;;;;;4987046;28;20386;-56
2024/02/02 03:14:30;;;;;;;22.42;6.60;;;;;;;;;;4987106;28;20027;-59
2024/02/02 03:16:56;;;;;;;25.92;6.53;;;;;;;;;;4987092;28;20019;-57
2024/02/02 03:19:22;;;;;;;24.20;7.05;;;;;;;;;;4988411;28;20034;-58
2024/02/02 03:21:48;;;;;;;25.45;7.10;;;;;;;;;;4989987;28;20026;-58
2024/02/02 03:24:14;;;;;;;26.45;7.38;;;;;;;;;;4989575;28;20034;-59
2024/02/02 03:26:40;;;;;;;21.67;6.38;;;;;;;;;;4987367;28;20026;-57
2024/02/02 03:29:06;;;;;;;26.42;6.22;;;;;;;;;;4987059;28;20439;-58
2024/02/02 03:31:32;;;;;;;27.17;7.43;;;;;;;;;;4988727;28;20121;-58
2024/02/02 03:33:58;;;;;;;27.00;6.03;;;;;;;;;;4989297;28;20066;-58
2024/02/02 03:36:24;;;;;;;27.40;8.18;;;;;;;;;;4988575;28;20037;-58
2024/02/02 03:38:50;;;;;;;37.05;8.15;;;;;;;;;;4987003;28;20037;-57
2024/02/02 03:41:17;;;;;;;28.08;6.85;;;;;;;;;;4988787;28;20034;-59
2024/02/02 03:43:43;;;;;;;35.60;7.38;;;;;;;;;;4989084;28;20485;-59
2024/02/02 03:46:09;;;;;;;29.25;6.88;;;;;;;;;;4987048;28;20035;-56
2024/02/02 03:48:35;;;;;;;35.85;6.90;;;;;;;;;;4989412;28;20034;-60
2024/02/02 03:51:01;;;;;;;32.45;6.00;;;;;;;;;;4989295;28;20029;-59
2024/02/02 03:53:27;;;;;;;27.30;6.72;;;;;;;;;;4988723;28;20416;-60
2024/02/02 03:55:53;;;;;;;25.75;6.65;;;;;;;;;;4986339;28;20042;-58
2024/02/02 03:58:19;;;;;;;33.60;6.55;;;;;;;;;;4987994;28;20130;-59
2024/02/02 04:00:45;;;;;;;22.73;5.70;;;;;;;;;;4988080;28;20093;-59
2024/02/02 04:03:11;;;;;;;32.67;6.00;;;;;;;;;;4988588;28;20126;-57
2024/02/02 04:05:39;;;;;;;28.92;6.90;;;;;;;;;;4989822;28;20049;-59
2024/02/02 04:08:05;;;;;;;24.48;5.30;;;;;;;;;;4989032;28;20046;-58
2024/02/02 04:10:32;;;;;;;22.98;5.28;;;;;;;;;;4984920;28;20094;-57
2024/02/02 04:12:58;;;;;;;36.53;6.82;;;;;;;;;;4988781;28;20102;-59
2024/02/02 04:15:24;;;;;;;33.60;6.38;;;;;;;;;;4981209;28;20034;-57
2024/02/02 04:17:50;;;;;;;30.92;6.43;;;;;;;;;;4978779;28;20022;-59
2024/02/02 04:20:16;;;;;;;26.88;6.90;;;;;;;;;;4983545;28;20030;-58
2024/02/02 04:22:42;;;;;;;22.05;6.13;;;;;;;;;;4980809;28;20085;-59
2024/02/02 04:25:08;;;;;;;24.60;5.82;;;;;;;;;;4977141;28;20038;-58
2024/02/02 04:27:34;;;;;;;23.45;6.93;;;;;;;;;;4980013;28;20137;-55
2024/02/02 04:30:00;;;;;;;22.88;6.40;;;;;;;;;;4978581;28;20037;-59
2024/02/02 04:32:26;;;;;;;28.83;7.38;;;;;;;;;;4979139;28;20035;-58
2024/02/02 04:34:52;;;;;;;47.13;8.18;;;;;;;;;;4982836;28;20049;-58
2024/02/02 04:37:18;;;;;;;26.83;7.00;;;;;;;;;;4984697;28;20144;-56
2024/02/02 04:39:44;;;;;;;35.47;7.60;;;;;;;;;;4988565;28;20025;-58
2024/02/02 04:42:10;;;;;;;29.85;7.20;;;;;;;;;;4988395;28;20527;-59
2024/02/02 04:44:36;;;;;;;28.73;6.40;;;;;;;;;;4988151;28;20065;-58
2024/02/02 04:47:03;;;;;;;33.17;7.65;;;;;;;;;;4987299;28;20042;-57
2024/02/02 04:49:29;;;;;;;39.45;7.97;;;;;;;;;;4984057;28;20110;-56
2024/02/02 04:51:55;;;;;;;29.25;6.45;;;;;;;;;;4979917;28;20026;-58
2024/02/02 04:54:21;;;;;;;29.52;6.75;;;;;;;;;;4980894;28;20687;-59
2024/02/02 04:56:47;;;;;;;27.63;6.80;;;;;;;;;;4978896;28;20049;-59
2024/02/02 04:59:13;;;;;;;27.48;6.38;;;;;;;;;;4978446;28;20022;-59
2024/02/02 05:01:39;;;;;;;51.10;10.38;;;;;;;;;;4978180;28;20026;-57
2024/02/02 05:04:05;;;;;;;24.60;6.50;;;;;;;;;;4979244;28;20034;-58
2024/02/02 05:06:31;;;;;;;29.05;7.03;;;;;;;;;;4978621;28;20026;-59
2024/02/02 05:08:58;;;;;;;28.13;6.85;;;;;;;;;;4981630;28;20026;-58
2024/02/02 05:11:24;;;;;;;23.45;5.85;;;;;;;;;;4981915;28;20030;-56
2024/02/02 05:13:50;;;;;;;28.20;6.55;;;;;;;;;;4985144;28;20041;-58
2024/02/02 05:16:16;;;;;;;24.77;6.22;;;;;;;;;;4983274;28;20488;-57
2024/02/02 05:18:41;;;;;;;35.08;7.72;;;;;;;;;;4986769;28;20112;-58
2024/02/02 05:21:07;;;;;;;33.67;7.38;;;;;;;;;;4986504;28;20378;-60
2024/02/02 05:23:33;;;;;;;28.95;6.82;;;;;;;;;;4986950;28;20377;-60
2024/02/02 05:25:59;;;;;;;34.65;6.32;;;;;;;;;;4978817;28;20631;-59
2024/02/02 05:28:25;;;;;;;33.72;6.65;;;;;;;;;;4977998;28;20062;-59
2024/02/02 05:30:51;;;;;;;39.22;7.72;;;;;;;;;;4977332;28;20023;-57
2024/02/02 05:33:17;;;;;;;25.33;6.40;;;;;;;;;;4978531;28;20034;-57
2024/02/02 05:35:43;;;;;;;30.52;6.43;;;;;;;;;;4979564;28;20027;-58
2024/02/02 05:38:09;;;;;;;27.60;6.15;;;;;;;;;;4980589;28;20041;-58
2024/02/02 05:40:35;;;;;;;30.33;6.43;;;;;;;;;;4980118;28;20053;-57
2024/02/02 05:43:01;;;;;;;24.13;5.95;;;;;;;;;;4981020;28;20030;-59
2024/02/02 05:45:27;;;;;;;21.50;6.22;;;;;;;;;;4982379;28;20046;-56
2024/02/02 05:47:53;;;;;;;18.35;5.18;;;;;;;;;;4983068;28;20800;-57
2024/02/02 05:50:19;;;;;;;18.85;5.82;;;;;;;;;;4981117;28;20432;-58
2024/02/02 05:52:45;;;;;;;25.25;6.70;;;;;;;;;;4977081;28;20056;-58
2024/02/02 05:55:11;;;;;;;29.55;5.32;;;;;;;;;;4982610;28;20018;-56
2024/02/02 05:57:37;;;;;;;26.98;6.10;;;;;;;;;;4982425;28;20033;-58
2024/02/02 06:00:03;;;;;;;32.30;6.32;;;;;;;;;;4981470;28;20030;-58
2024/02/02 06:02:29;;;;;;;29.80;5.90;;;;;;;;;;4979595;28;20567;-58
2024/02/02 06:04:55;;;;;;;44.28;8.68;;;;;;;;;;4980896;28;20026;-58
2024/02/02 06:07:21;;;;;;;34.38;6.25;;;;;;;;;;4987769;28;22481;-57
2024/02/02 06:09:47;;;;;;;19.52;6.28;;;;;;;;;;4987997;28;20492;-57
2024/02/02 06:12:13;;;;;;;29.60;5.45;;;;;;;;;;4987459;28;20050;-56
2024/02/02 06:14:39;;;;;;;26.33;6.75;;;;;;;;;;4988215;28;20026;-55
2024/02/02 06:17:09;;;;;;;26.08;5.57;;;;;;;;;;4988928;28;20504;-56
2024/02/02 06:19:34;;;;;;;26.15;6.30;;;;;;;;;;4986290;28;20034;-57
2024/02/02 06:22:00;;;;;;;28.00;5.05;;;;;;;;;;4983479;28;20035;-58
2024/02/02 06:24:26;;;;;;;21.67;6.55;;;;;;;;;;4990451;28;20032;-56
2024/02/02 06:26:52;;;;;;;24.80;6.75;;;;;;;;;;4986096;28;20057;-57
2024/02/02 06:29:18;;;;;;;31.23;7.82;;;;;;;;;;4987374;28;20034;-56
2024/02/02 06:31:44;;;;;;;19.67;6.55;;;;;;;;;;4990954;28;20044;-57
2024/02/02 06:34:10;;;;;;;25.35;7.32;;;;;;;;;;4989564;28;20026;-54
2024/02/02 06:36:36;;;;;;;26.85;6.82;;;;;;;;;;4991876;28;20146;-58
2024/02/02 06:39:02;;;;;;;24.10;6.32;;;;;;;;;;4989775;28;20070;-56
2024/02/02 06:41:28;;;;;;;29.60;6.80;;;;;;;;;;4988419;28;20026;-58
2024/02/02 06:43:54;;;;;;;26.13;5.82;;;;;;;;;;4992245;28;20397;-58
2024/02/02 06:46:20;;;;;;;32.15;7.03;;;;;;;;;;4991792;28;20038;-56
2024/02/02 06:48:46;;;;;;;28.85;6.50;;;;;;;;;;4991429;28;20049;-58
2024/02/02 06:51:12;;;;;;;16.98;4.93;;;;;;;;;;4991613;28;20030;-56
2024/02/02 06:53:38;;;;;;;27.65;4.93;;;;;;;;;;4990810;28;20084;-57
2024/02/02 06:56:09;;;;;;;32.28;10.35;;;;;;;;;;4991642;28;20038;-58
2024/02/02 06:58:39;;;;;;;18.45;5.90;;;;;;;;;;4991137;28;20023;-58
2024/02/02 07:01:05;;;;;;;24.45;5.72;;;;;;;;;;4990754;28;20038;-56
2024/02/02 07:03:32;;;;;;;25.50;6.03;;;;;;;;;;4992277;28;20026;-59
2024/02/02 07:05:58;;;;;;;19.95;5.40;;;;;;;;;;4992610;28;20050;-59
2024/02/02 07:08:24;;;;;;;20.95;6.28;;;;;;;;;;4991957;28;20384;-59
2024/02/02 07:10:58;;;;;;;27.92;5.32;;;;;;;;;;4991707;28;20022;-58
2024/02/02 07:13:25;;;;;;;31.45;6.90;;;;;;;;;;4992175;28;20688;-57
2024/02/02 07:15:51;;;;;;;26.35;6.78;;;;;;;;;;4988587;28;20022;-57
2024/02/02 07:18:36;;;;;;;17.65;5.75;;;;;;;;;;4991149;28;20116;-58
2024/02/02 07:21:04;;;;;;;26.05;6.63;;;;;;;;;;4991451;28;20046;-57
2024/02/02 07:23:34;;;;;;;29.70;6.88;;;;;;;;;;4991785;28;20022;-59
2024/02/02 07:26:01;;;;;;;32.45;6.30;;;;;;;;;;4990082;28;20508;-58
2024/02/02 07:28:27;;;;;;;27.10;7.70;;;;;;;;;;4991448;28;20485;-58
2024/02/02 07:30:55;;;;;;;28.55;7.80;;;;;;;;;;4990276;28;20030;-58
2024/02/02 07:33:21;;;;;;;26.23;6.38;;;;;;;;;;4989030;28;20138;-58
2024/02/02 07:35:47;;;;;;;18.65;5.93;;;;;;;;;;4988456;28;20611;-60
2024/02/02 07:38:25;;;;;;;32.28;7.85;;;;;;;;;;4991675;28;20073;-58
2024/02/02 07:40:51;;;;;;;28.20;7.75;;;;;;;;;;4990311;28;20033;-59
2024/02/02 07:43:17;;;;;;;37.67;8.85;;;;;;;;;;4989526;28;20576;-57
2024/02/02 07:45:43;;;;;;;26.80;7.65;;;;;;;;;;4990911;28;20029;-59
2024/02/02 07:48:09;;;;;;;36.90;8.43;;;;;;;;;;4992020;28;20041;-59
2024/02/02 07:50:35;;;;;;;45.25;9.35;;;;;;;;;;4989618;28;20049;-57
2024/02/02 07:53:01;;;;;;;31.58;9.32;;;;;;;;;;4991240;28;20088;-58
2024/02/02 07:55:27;;;;;;;35.40;8.07;;;;;;;;;;4989590;28;20358;-59
2024/02/02 07:57:53;;;;;;;33.47;8.85;;;;;;;;;;4991855;28;20022;-54
2024/02/02 08:00:19;;;;;;;31.42;8.10;;;;;;;;;;4989595;28;20539;-57
2024/02/02 08:02:45;;;;;;;34.28;8.20;;;;;;;;;;4986855;28;20850;-58
2024/02/02 08:05:10;;;;;;;29.48;8.70;;;;;;;;;;4990154;28;20109;-59
2024/02/02 08:07:36;;;;;;;36.17;8.90;;;;;;;;;;4990335;28;20026;-58
2024/02/02 08:10:03;;;;;;;32.65;9.32;;;;;;;;;;4989920;28;20459;-58
2024/02/02 08:12:30;;;;;;;28.75;10.00;;;;;;;;;;4990349;28;20054;-57
2024/02/02 08:14:56;;;;;;;26.00;8.13;;;;;;;;;;4991440;28;20109;-57
2024/02/02 08:17:22;;;;;;;28.40;7.72;;;;;;;;;;4991231;28;20112;-59
2024/02/02 08:19:48;;;;;;;27.38;7.47;;;;;;;;;;4989867;28;20049;-58
2024/02/02 08:22:14;;;;;;;36.97;9.07;;;;;;;;;;4990208;28;20042;-59
2024/02/02 08:24:40;;;;;;;29.10;8.05;;;;;;;;;;4989241;28;20105;-59
2024/02/02 08:27:06;;;;;;;34.53;10.50;;;;;;;;;;4989723;28;20022;-59
2024/02/02 08:29:32;;;;;;;32.17;8.38;;;;;;;;;;4986616;28;20037;-58
2024/02/02 08:31:58;;;;;;;35.40;9.65;;;;;;;;;;4987669;28;20054;-60
2024/02/02 08:34:25;;;;;;;32.42;8.98;;;;;;;;;;4985012;28;20116;-58
2024/02/02 08:36:51;;;;;;;36.95;8.48;;;;;;;;;;4990347;28;20018;-56
2024/02/02 08:39:17;;;;;;;28.75;8.90;;;;;;;;;;4986913;28;20046;-58
2024/02/02 08:41:44;;;;;;;23.45;7.22;;;;;;;;;;4988555;28;20122;-57
2024/02/02 08:44:36;;;;;;;33.47;8.73;;;;;;;;;;4986914;28;20038;-58
2024/02/02 08:47:02;;;;;;;35.58;9.15;;;;;;;;;;4975416;28;20385;-58
2024/02/02 08:49:47;;;;;;;32.35;8.38;;;;;;;;;;4986398;28;20089;-58
2024/02/02 08:52:22;;;;;;;28.58;6.97;;;;;;;;;;4983807;28;20026;-57
2024/02/02 08:54:48;;;;;;;25.17;7.57;;;;;;;;;;4986284;28;20034;-58
2024/02/02 08:57:23;;;;;;;29.48;7.38;;;;;;;;;;4985184;28;20026;-59
2024/02/02 08:59:52;;;;;;;27.48;7.57;;;;;;;;;;4985811;28;20045;-59
2024/02/02 09:02:37;;;;;;;31.40;9.93;;;;;;;;;;4984123;28;20027;-58
2024/02/02 09:05:15;;;;;;;28.42;8.10;;;;;;;;;;4987242;28;20030;-60
2024/02/02 09:07:41;;;;;;;33.95;9.10;;;;;;;;;;4984479;28;20035;-57
2024/02/02 09:10:22;;;;;;;31.60;8.07;;;;;;;;;;4982531;28;21284;-59
2024/02/02 09:12:51;;;;;;;20.88;6.25;;;;;;;;;;4986105;28;20041;-58
2024/02/02 09:15:18;;;;;;;25.33;6.60;;;;;;;;;;4987718;28;20577;-57
2024/02/02 09:17:44;;;;;;;19.60;6.95;;;;;;;;;;4987948;28;20535;-59
2024/02/02 09:20:16;;;;;;;18.73;7.35;;;;;;;;;;4987611;28;20030;-58
2024/02/02 09:22:42;;;;;;;25.05;6.00;;;;;;;;;;4987448;28;20038;-59
2024/02/02 09:25:10;;;;;;;26.23;5.85;;;;;;;;;;4988059;28;20046;-59
2024/02/02 09:27:38;;;;;;;20.35;5.38;;;;;;;;;;4986320;28;20682;-56
2024/02/02 09:30:19;;;;;;;15.88;3.35;;;;;;;;;;4985206;28;20062;-59
2024/02/02 09:32:45;;;;;;;18.00;3.10;;;;;;;;;;4989430;28;20034;-59
2024/02/02 09:35:30;;;;;;;16.92;3.78;;;;;;;;;;4986520;28;20030;-58
2024/02/02 09:37:55;;;;;;;;;;;;;;;;;;4989631;28;20036;-59
2024/02/02 09:40:53;;;;;;;15.07;2.13;;;;;;;;;;4990632;28;19980;-56
2024/02/02 09:43:25;;;;;;;17.73;2.47;;;;;;;;;;4989538;28;20030;-59
2024/02/02 09:45:54;;;;;;;15.20;2.47;;;;;;;;;;4996867;28;20084;-58
2024/02/02 09:48:26;;;;;;;14.05;2.20;;;;;;;;;;4994898;28;20037;-58
2024/02/02 09:50:59;;;;;;;16.92;2.88;;;;;;;;;;4994797;28;20041;-59
2024/02/02 09:53:34;;;;;;;15.85;3.33;;;;;;;;;;5001657;28;20054;-59
2024/02/02 09:56:08;;;;;;;24.55;3.17;;;;;;;;;;5002777;28;20050;-59
2024/02/02 09:58:54;;;;;;;15.80;2.85;;;;;;;;;;5003234;28;20037;-59
2024/02/02 10:01:47;;;;;;;22.60;2.85;;;;;;;;;;5001741;28;20034;-59
2024/02/02 10:04:23;;;;;;;18.20;2.80;;;;;;;;;;5005266;28;20026;-59
2024/02/02 10:06:48;;;;;;;30.38;4.45;;;;;;;;;;4997989;28;20104;-60
2024/02/02 10:09:17;;;;;;;21.08;2.63;;;;;;;;;;4991812;28;20030;-59
2024/02/02 10:11:43;;;;;;;10.45;2.63;;;;;;;;;;4997505;28;20126;-59
2024/02/02 10:14:09;;;;;;;22.05;3.63;;;;;;;;;;4998083;28;20058;-59
2024/02/02 10:16:53;;;;;;;19.17;4.05;;;;;;;;;;4996221;28;20038;-59
2024/02/02 10:19:18;;;;;;;18.20;3.38;;;;;;;;;;4992173;28;20671;-58
2024/02/02 10:21:55;;;;;;;15.63;2.95;;;;;;;;;;4991092;28;20027;-60
2024/02/02 10:24:29;;;;;;;17.35;3.70;;;;;;;;;;4987789;28;20105;-59
2024/02/02 10:27:05;;;;;;;14.05;2.75;;;;;;;;;;4985273;28;20089;-59
2024/02/02 10:29:40;;;;;;;18.38;3.13;;;;;;;;;;4985511;28;20073;-59
2024/02/02 10:32:25;;;;;;;16.75;3.60;;;;;;;;;;4986207;28;20065;-61
2024/02/02 10:34:51;;;;;;;12.68;3.00;;;;;;;;;;4989768;28;20026;-57
2024/02/02 10:37:17;;;;;;;19.33;2.80;;;;;;;;;;4987768;28;20031;-58
2024/02/02 10:39:51;;;;;;;14.63;3.33;;;;;;;;;;4991966;28;20033;-56
2024/02/02 10:42:36;;;;;;;15.05;2.97;;;;;;;;;;4990851;28;20890;-59
2024/02/02 10:45:09;;;;;;;16.73;2.30;;;;;;;;;;4991911;28;20424;-58
2024/02/02 10:47:48;;;;;;;12.32;2.67;;;;;;;;;;4991654;28;20031;-58
2024/02/02 10:50:21;;;;;;;18.30;3.22;;;;;;;;;;4987182;28;20037;-59
2024/02/02 10:52:56;;;;;;;16.55;3.15;;;;;;;;;;4991729;28;20030;-59
2024/02/02 10:55:42;;;;;;;17.67;2.33;;;;;;;;;;4992536;28;20019;-60
2024/02/02 10:58:26;;;;;;;21.67;3.25;;;;;;;;;;4988691;28;20109;-59
2024/02/02 11:00:59;;;;;;;17.05;2.90;;;;;;;;;;4990498;28;20484;-59
2024/02/02 11:03:36;;;;;;;18.80;3.33;;;;;;;;;;4988324;28;20034;-59
2024/02/02 11:06:11;;;;;;;8.35;2.17;;;;;;;;;;4991670;28;20023;-58
2024/02/02 11:08:43;;;;;;;17.80;2.80;;;;;;;;;;4991432;28;20038;-59
2024/02/02 11:11:13;;;;;;;14.07;2.70;;;;;;;;;;4989759;28;20508;-58
2024/02/02 11:13:44;;;;;;;17.20;3.33;;;;;;;;;;4989975;28;20098;-59
2024/02/02 11:16:19;;;;;;;18.63;3.28;;;;;;;;;;4990505;28;20496;-59
2024/02/02 11:19:06;;;;;;;18.55;2.88;;;;;;;;;;4991781;28;20038;-58
2024/02/02 11:21:47;;;;;;;17.50;3.20;;;;;;;;;;4989459;28;20023;-59
2024/02/02 11:24:36;;;;;;;22.65;3.83;;;;;;;;;;4987427;28;20030;-59
2024/02/02 11:27:07;;;;;;;13.90;4.05;;;;;;;;;;4984508;28;20019;-57
2024/02/02 11:29:41;;;;;;;22.50;3.97;;;;;;;;;;4986269;28;20034;-59
2024/02/02 11:32:23;;;;;;;15.52;2.95;;;;;;;;;;4984392;28;20042;-60
2024/02/02 11:35:07;;;;;;;20.05;3.08;;;;;;;;;;4985862;28;20044;-59
2024/02/02 11:37:46;;;;;;;15.10;3.30;;;;;;;;;;4987519;28;20033;-59
2024/02/02 11:40:12;;;;;;;32.30;4.90;;;;;;;;;;4982999;28;20052;-56
2024/02/02 11:42:39;;;;;;;14.10;3.17;;;;;;;;;;4985224;28;20041;-60
2024/02/02 11:45:07;;;;;;;13.80;2.90;;;;;;;;;;4991328;28;20504;-56
2024/02/02 11:47:37;;;;;;;15.95;3.63;;;;;;;;;;4985750;28;20035;-59
2024/02/02 11:50:06;;;;;;;18.15;3.28;;;;;;;;;;4990730;28;20088;-57
2024/02/02 11:52:37;;;;;;;25.25;3.75;;;;;;;;;;4989598;28;20088;-59
2024/02/02 11:55:07;;;;;;;14.82;3.30;;;;;;;;;;4987143;28;20022;-59
2024/02/02 11:57:36;;;;;;;14.82;2.60;;;;;;;;;;4986909;28;20102;-58
2024/02/02 12:00:05;;;;;;;14.70;2.63;;;;;;;;;;4984152;28;20026;-59
2024/02/02 12:02:56;;;;;;;16.00;3.03;;;;;;;;;;4988453;28;20022;-54
2024/02/02 12:05:24;;;;;;;10.70;3.03;;;;;;;;;;4987153;28;20109;-55
2024/02/02 12:07:57;;;;;;;20.08;3.60;;;;;;;;;;4990214;28;20057;-57
2024/02/02 12:10:24;;;;;;;17.90;3.42;;;;;;;;;;4987061;28;20391;-58
2024/02/02 12:13:02;;;;;;;18.25;3.28;;;;;;;;;;4989706;28;20084;-59
2024/02/02 12:15:29;;;;;;;15.68;3.45;;;;;;;;;;4986982;28;20030;-58
2024/02/02 12:17:55;;;;;;;9.98;3.45;;;;;;;;;;4986466;28;20023;-58
2024/02/02 12:20:21;;;;;;;17.27;2.90;;;;;;;;;;4991814;28;20071;-56
2024/02/02 12:22:48;;;;;;;14.25;3.03;;;;;;;;;;4986497;28;20053;-58
2024/02/02 12:25:14;;;;;;;16.10;4.38;;;;;;;;;;4995143;28;20029;-58
2024/02/02 12:27:40;;;;;;;10.25;2.90;;;;;;;;;;4988499;28;20030;-57
2024/02/02 12:30:10;;;;;;;12.38;2.78;;;;;;;;;;4989460;28;20034;-57
2024/02/02 12:32:36;;;;;;;15.45;3.30;;;;;;;;;;4984142;28;20081;-58
2024/02/02 12:35:06;;;;;;;18.52;3.45;;;;;;;;;;4985407;28;20027;-57
2024/02/02 12:37:43;;;;;;;17.75;3.33;;;;;;;;;;4988660;28;20108;-58
2024/02/02 12:40:09;;;;;;;11.68;3.53;;;;;;;;;;4986380;28;20038;-59
2024/02/02 12:42:35;;;;;;;10.77;3.08;;;;;;;;;;4981784;28;20037;-58
2024/02/02 12:45:01;;;;;;;13.52;4.05;;;;;;;;;;4986748;28;20027;-59
2024/02/02 12:47:29;;;;;;;15.90;3.00;;;;;;;;;;4982887;28;20019;-58
2024/02/02 12:49:55;;;;;;;9.57;3.20;;;;;;;;;;4983374;28;20022;-57
2024/02/02 12:52:21;;;;;;;23.25;3.58;;;;;;;;;;4985991;28;20041;-60
2024/02/02 12:54:47;;;;;;;13.90;3.70;;;;;;;;;;4984423;28;20105;-57
2024/02/02 12:57:13;;;;;;;12.43;3.60;;;;;;;;;;4981509;28;20449;-60
2024/02/02 12:59:39;;;;;;;17.08;3.55;;;;;;;;;;4984676;28;20027;-59
2024/02/02 13:02:07;;;;;;;11.68;3.60;;;;;;;;;;4987702;28;20035;-58
2024/02/02 13:04:33;;;;;;;11.60;3.38;;;;;;;;;;4986427;28;20089;-60
2024/02/02 13:06:59;;;;;;;21.55;4.20;;;;;;;;;;4986413;28;20125;-59
2024/02/02 13:09:29;;;;;;;18.15;3.75;;;;;;;;;;4983444;28;20042;-60
2024/02/02 13:11:57;;;;;;;17.77;4.10;;;;;;;;;;4983624;28;20399;-59
2024/02/02 13:14:28;;;;;;;17.55;3.88;;;;;;;;;;4987280;28;20046;-60
2024/02/02 13:17:03;;;;;;;11.95;2.85;;;;;;;;;;4983673;28;20077;-59
2024/02/02 13:19:36;;;;;;;16.08;3.47;;;;;;;;;;4988108;28;20026;-59
2024/02/02 13:22:02;;;;;;;9.35;2.97;;;;;;;;;;4986775;28;20019;-58
2024/02/02 13:24:28;;;;;;;16.52;3.90;;;;;;;;;;4988819;28;20023;-58
2024/02/02 13:27:06;;;;;;;13.63;3.70;;;;;;;;;;4987270;28;20029;-58
2024/02/02 13:29:35;;;;;;;12.27;4.22;;;;;;;;;;4986740;28;20026;-59
2024/02/02 13:32:01;;;;;;;14.13;3.83;;;;;;;;;;4988330;28;20034;-58
2024/02/02 13:34:27;;;;;;;18.67;3.72;;;;;;;;;;4988041;28;20046;-57
2024/02/02 13:36:59;;;;;;;15.68;4.38;;;;;;;;;;4993462;28;20511;-58
2024/02/02 13:39:25;;;;;;;14.45;3.78;;;;;;;;;;4988693;28;20546;-58
2024/02/02 13:41:53;;;;;;;14.10;4.45;;;;;;;;;;4985443;28;20058;-59
2024/02/02 13:44:22;;;;;;;14.60;3.75;;;;;;;;;;4989474;28;20057;-58
2024/02/02 13:46:48;;;;;;;13.40;3.88;;;;;;;;;;4986350;28;20109;-59
2024/02/02 13:49:24;;;;;;;15.43;4.43;;;;;;;;;;4988167;28;20170;-59
2024/02/02 13:51:51;;;;;;;16.67;3.67;;;;;;;;;;4987628;28;20031;-59
2024/02/02 13:54:21;;;;;;;13.63;4.38;;;;;;;;;;4988996;28;20061;-59
2024/02/02 13:56:47;;;;;;;10.93;3.83;;;;;;;;;;4985406;28;20018;-58
2024/02/02 13:59:19;;;;;;;10.93;3.80;;;;;;;;;;4991117;28;20030;-58
2024/02/02 14:01:46;;;;;;;13.90;4.00;;;;;;;;;;4985597;28;20026;-59
2024/02/02 14:04:12;;;;;;;12.20;4.00;;;;;;;;;;4984648;28;20050;-58
2024/02/02 14:06:38;;;;;;;18.42;3.95;;;;;;;;;;4987982;28;20040;-58
2024/02/02 14:09:04;;;;;;;16.42;4.63;;;;;;;;;;4985575;28;20096;-58
2024/02/02 14:11:30;;;;;;;18.48;4.55;;;;;;;;;;4987774;28;20137;-56
2024/02/02 14:14:01;;;;;;;14.40;4.35;;;;;;;;;;4985385;28;20090;-57
2024/02/02 14:16:30;;;;;;;15.52;3.95;;;;;;;;;;4985713;28;20070;-58
2024/02/02 14:19:02;;;;;;;11.68;4.05;;;;;;;;;;4991488;28;20117;-59
2024/02/02 14:21:29;;;;;;;18.35;5.75;;;;;;;;;;4991806;28;20088;-59
2024/02/02 14:24:04;;;;;;;16.65;5.50;;;;;;;;;;4983561;28;20780;-58
2024/02/02 14:26:30;;;;;;;15.23;4.32;;;;;;;;;;4985445;28;20065;-58
2024/02/02 14:29:00;;;;;;;14.40;4.70;;;;;;;;;;4987947;28;20045;-58
2024/02/02 14:31:28;;;;;;;19.05;4.47;;;;;;;;;;4989209;28;20050;-58
2024/02/02 14:33:55;;;;;;;14.05;4.50;;;;;;;;;;4987569;28;20105;-59
2024/02/02 14:36:20;;;;;;;10.90;4.53;;;;;;;;;;4988830;28;20023;-58
2024/02/02 14:38:47;;;;;;;10.73;3.75;;;;;;;;;;4986858;28;20031;-57
2024/02/02 14:41:14;;;;;;;13.02;4.05;;;;;;;;;;4987779;28;20026;-58